Time;durP1;ratioP1;P1;durP2;ratioP2;P2;SDS_P1;SDS_P2;PMS_P1;PMS_P2;Temp;Humidity;BMP_temperature;BMP_pressure;BME280_temperature;BME280_humidity;BME280_pressure;Samples;Min_cycle;Max_cycle;Signal;HPM_P1;HPM_P2
2022/07/18 00:00:07;;;;;;;27.38;9.52;;;28.00;80.90;;;;;;5090489;28;20043;-71
2022/07/18 00:03:10;;;;;;;22.77;9.55;;;28.00;81.30;;;;;;5090328;28;20515;-71
2022/07/18 00:06:14;;;;;;;22.88;9.82;;;27.90;81.40;;;;;;5090542;28;20055;-71
2022/07/18 00:09:19;;;;;;;19.10;8.55;;;27.90;81.50;;;;;;5090376;28;20047;-71
2022/07/18 00:12:24;;;;;;;21.92;9.38;;;27.80;81.50;;;;;;5090443;28;20043;-71
2022/07/18 00:15:27;;;;;;;16.00;8.82;;;27.90;81.40;;;;;;5090740;28;20542;-71
2022/07/18 00:18:31;;;;;;;17.38;9.25;;;27.80;81.60;;;;;;5089411;28;20058;-71
2022/07/18 00:21:35;;;;;;;18.98;10.07;;;27.80;81.10;;;;;;5090088;28;20510;-71
2022/07/18 00:24:39;;;;;;;14.07;8.80;;;27.80;81.70;;;;;;5090421;28;20039;-71
2022/07/18 00:27:43;;;;;;;17.50;8.52;;;27.60;81.70;;;;;;5092972;28;20043;-71
2022/07/18 00:30:47;;;;;;;16.23;9.15;;;27.60;81.80;;;;;;5094070;28;20203;-71
2022/07/18 00:33:51;;;;;;;13.82;8.65;;;27.50;81.80;;;;;;5094106;28;20042;-71
2022/07/18 00:36:55;;;;;;;14.38;8.25;;;27.50;81.60;;;;;;5092859;28;20051;-71
2022/07/18 00:39:59;;;;;;;17.50;8.43;;;27.40;81.50;;;;;;5093461;28;20058;-71
2022/07/18 00:43:03;;;;;;;20.90;9.63;;;27.40;81.80;;;;;;5093866;28;20043;-71
2022/07/18 00:46:07;;;;;;;18.45;10.65;;;27.50;82.30;;;;;;5093683;28;20047;-71
2022/07/18 00:49:11;;;;;;;21.52;11.48;;;27.50;82.50;;;;;;5093453;28;20062;-70
2022/07/18 00:52:15;;;;;;;16.15;11.07;;;27.60;81.90;;;;;;5093411;28;20051;-71
2022/07/18 00:55:19;;;;;;;16.85;10.23;;;27.50;81.80;;;;;;5093191;28;20039;-71
2022/07/18 00:58:23;;;;;;;21.75;10.50;;;27.50;81.90;;;;;;5093435;28;20067;-71
2022/07/18 01:01:42;;;;;;;20.90;9.65;;;27.50;82.80;;;;;;5093178;28;20047;-71
2022/07/18 01:04:46;;;;;;;27.20;10.70;;;27.50;82.90;;;;;;5093026;28;20050;-71
2022/07/18 01:07:51;;;;;;;21.10;10.60;;;27.40;83.00;;;;;;5093442;28;20396;-71
2022/07/18 01:10:55;;;;;;;29.13;11.52;;;27.40;83.40;;;;;;5092117;28;20035;-71
2022/07/18 01:14:01;;;;;;;26.15;10.38;;;27.30;83.20;;;;;;5092895;28;20046;-71
2022/07/18 01:17:16;;;;;;;17.48;10.70;;;27.30;83.50;;;;;;5093324;28;20039;-71
2022/07/18 01:20:20;;;;;;;24.13;11.13;;;27.30;83.80;;;;;;5092901;28;20043;-71
2022/07/18 01:23:24;;;;;;;17.75;10.00;;;27.20;83.80;;;;;;5092575;28;20040;-71
2022/07/18 01:26:28;;;;;;;18.90;9.88;;;27.10;83.70;;;;;;5092422;28;20051;-71
2022/07/18 01:29:32;;;;;;;15.82;9.27;;;27.10;84.00;;;;;;5092764;28;20039;-71
2022/07/18 01:32:37;;;;;;;18.08;9.23;;;27.10;84.00;;;;;;5092477;28;20047;-71
2022/07/18 01:35:41;;;;;;;19.50;9.77;;;27.10;83.90;;;;;;5092883;28;20043;-71
2022/07/18 01:38:45;;;;;;;18.67;9.50;;;27.10;84.50;;;;;;5091777;28;20059;-71
2022/07/18 01:42:02;;;;;;;17.52;9.55;;;27.10;84.00;;;;;;5092341;28;20043;-71
2022/07/18 01:45:07;;;;;;;15.85;9.15;;;27.20;83.90;;;;;;5092708;28;20071;-71
2022/07/18 01:48:10;;;;;;;18.67;9.02;;;27.10;83.70;;;;;;5092403;28;20043;-71
2022/07/18 01:51:14;;;;;;;14.57;7.90;;;27.00;83.80;;;;;;5092071;28;20444;-71
2022/07/18 01:54:28;;;;;;;15.00;8.45;;;27.00;83.80;;;;;;5092465;28;20491;-71
2022/07/18 01:57:32;;;;;;;16.25;8.98;;;27.00;83.70;;;;;;5092033;28;20518;-71
2022/07/18 02:00:36;;;;;;;26.70;8.13;;;27.00;83.60;;;;;;5091589;28;20495;-71
2022/07/18 02:03:40;;;;;;;15.88;7.80;;;27.00;83.60;;;;;;5092360;28;20114;-71
2022/07/18 02:06:44;;;;;;;22.40;8.15;;;27.00;83.30;;;;;;5092087;28;20055;-71
2022/07/18 02:09:48;;;;;;;12.25;7.32;;;27.00;83.60;;;;;;5092143;28;20055;-71
2022/07/18 02:12:53;;;;;;;30.10;7.97;;;27.00;83.60;;;;;;5091826;28;20040;-71
2022/07/18 02:15:57;;;;;;;14.85;7.80;;;27.00;83.80;;;;;;5092224;28;20506;-71
2022/07/18 02:19:01;;;;;;;18.70;7.20;;;26.80;83.80;;;;;;5091751;28;20248;-71
2022/07/18 02:22:06;;;;;;;15.85;7.07;;;26.70;83.20;;;;;;5091957;28;20388;-70
2022/07/18 02:25:10;;;;;;;16.88;6.95;;;26.60;83.30;;;;;;5091907;28;20051;-71
2022/07/18 02:28:14;;;;;;;21.25;6.88;;;26.60;82.80;;;;;;5091668;28;20043;-71
2022/07/18 02:31:18;;;;;;;13.68;7.03;;;26.60;83.10;;;;;;5090999;28;20392;-71
2022/07/18 02:34:22;;;;;;;10.35;6.63;;;26.60;83.10;;;;;;5091492;28;20399;-71
2022/07/18 02:37:26;;;;;;;13.43;7.10;;;26.60;83.30;;;;;;5091502;28;20043;-71
2022/07/18 02:40:30;;;;;;;19.38;7.65;;;26.70;83.50;;;;;;5091660;28;20051;-71
2022/07/18 02:43:34;;;;;;;16.60;7.13;;;26.80;83.10;;;;;;5091752;28;20047;-71
2022/07/18 02:46:38;;;;;;;23.50;7.30;;;26.80;83.40;;;;;;5091590;28;20063;-71
2022/07/18 02:49:42;;;;;;;12.77;6.32;;;26.70;83.50;;;;;;5090448;28;20400;-71
2022/07/18 02:52:46;;;;;;;16.70;6.95;;;26.70;83.60;;;;;;5091183;28;20526;-70
2022/07/18 02:55:50;;;;;;;14.80;6.57;;;26.70;83.70;;;;;;5091305;28;20043;-71
2022/07/18 02:58:55;;;;;;;13.02;6.88;;;26.80;83.90;;;;;;5091323;28;20506;-71
2022/07/18 03:01:59;;;;;;;13.65;6.70;;;26.70;84.00;;;;;;5091348;28;20043;-71
2022/07/18 03:05:04;;;;;;;16.13;7.70;;;26.80;84.00;;;;;;5090822;28;20047;-71
2022/07/18 03:08:08;;;;;;;14.02;6.97;;;26.90;84.10;;;;;;5090999;28;20069;-71
2022/07/18 03:11:11;;;;;;;11.85;6.53;;;26.90;84.10;;;;;;5090588;28;20046;-70
2022/07/18 03:14:16;;;;;;;11.65;7.50;;;26.90;84.00;;;;;;5090896;28;20388;-71
2022/07/18 03:17:20;;;;;;;11.25;6.68;;;26.80;84.20;;;;;;5090821;28;20043;-70
2022/07/18 03:20:24;;;;;;;15.25;6.70;;;26.90;84.20;;;;;;5090374;28;20067;-70
2022/07/18 03:23:27;;;;;;;12.85;6.75;;;26.80;84.90;;;;;;5090756;28;20043;-71
2022/07/18 03:26:31;;;;;;;13.85;7.13;;;26.80;84.60;;;;;;5090994;28;20047;-71
2022/07/18 03:29:35;;;;;;;15.60;6.88;;;26.80;84.10;;;;;;5091094;28;20388;-71
2022/07/18 03:32:40;;;;;;;13.77;6.47;;;26.90;83.50;;;;;;5090939;28;20043;-71
2022/07/18 03:35:44;;;;;;;13.98;6.60;;;26.70;84.10;;;;;;5090771;28;20038;-71
2022/07/18 03:38:48;;;;;;;13.80;7.90;;;26.60;84.40;;;;;;5090690;28;20051;-70
2022/07/18 03:41:52;;;;;;;13.60;6.72;;;26.40;85.00;;;;;;5090946;28;20063;-70
2022/07/18 03:44:56;;;;;;;19.40;8.00;;;26.40;85.20;;;;;;5090914;28;20047;-70
2022/07/18 03:48:00;;;;;;;17.25;7.47;;;26.30;85.40;;;;;;5090633;28;20039;-71
2022/07/18 03:51:04;;;;;;;22.30;8.13;;;26.20;85.80;;;;;;5090439;28;20051;-71
2022/07/18 03:54:09;;;;;;;38.03;8.52;;;26.30;85.40;;;;;;5090671;28;20047;-71
2022/07/18 03:57:14;;;;;;;50.40;9.20;;;26.20;85.70;;;;;;5089895;28;20043;-71
2022/07/18 04:00:18;;;;;;;17.55;9.02;;;26.10;85.70;;;;;;5090450;28;20055;-71
2022/07/18 04:03:22;;;;;;;17.55;7.95;;;26.00;85.60;;;;;;5094251;28;20043;-71
2022/07/18 04:06:26;;;;;;;24.58;9.23;;;26.10;86.00;;;;;;5094488;28;20043;-71
2022/07/18 04:09:30;;;;;;;37.05;9.90;;;26.10;85.70;;;;;;5094449;28;20051;-70
2022/07/18 04:12:34;;;;;;;20.58;8.73;;;26.10;85.70;;;;;;5094001;28;20047;-71
2022/07/18 04:15:38;;;;;;;20.33;8.98;;;26.20;85.10;;;;;;5094328;28;20051;-71
2022/07/18 04:18:42;;;;;;;23.00;8.60;;;26.20;84.50;;;;;;5094133;28;20043;-70
2022/07/18 04:21:46;;;;;;;25.20;7.43;;;26.20;83.60;;;;;;5093805;28;20154;-71
2022/07/18 04:24:50;;;;;;;17.73;7.60;;;26.20;83.70;;;;;;5093860;28;20368;-71
2022/07/18 04:27:55;;;;;;;18.65;7.38;;;26.30;82.80;;;;;;5094141;28;20498;-71
2022/07/18 04:30:59;;;;;;;18.17;7.63;;;26.40;81.90;;;;;;5093941;28;20055;-70
2022/07/18 04:34:03;;;;;;;16.17;8.95;;;26.40;82.00;;;;;;5093744;28;20043;-71
2022/07/18 04:37:07;;;;;;;31.60;10.20;;;26.40;82.10;;;;;;5093996;28;20043;-71
2022/07/18 04:40:12;;;;;;;40.00;10.88;;;26.40;82.20;;;;;;5093437;28;20055;-71
2022/07/18 04:43:16;;;;;;;24.85;9.68;;;26.60;82.00;;;;;;5093193;28;20419;-70
2022/07/18 04:46:20;;;;;;;52.60;12.52;;;26.90;82.40;;;;;;5093801;28;20525;-70
2022/07/18 04:49:25;;;;;;;31.98;11.57;;;27.30;80.10;;;;;;5093237;28;20039;-71
2022/07/18 04:52:36;;;;;;;26.27;10.30;;;27.70;78.80;;;;;;5093631;28;20051;-71
2022/07/18 04:55:40;;;;;;;22.17;11.02;;;28.30;77.70;;;;;;5093459;28;20043;-71
2022/07/18 04:58:44;;;;;;;27.20;11.52;;;28.70;77.10;;;;;;5093357;28;20506;-71
2022/07/18 05:01:48;;;;;;;28.17;10.77;;;29.00;76.40;;;;;;5093606;28;20058;-71
2022/07/18 05:04:52;;;;;;;31.75;10.07;;;29.30;74.90;;;;;;5093303;28;20391;-71
2022/07/18 05:07:56;;;;;;;30.33;10.07;;;29.50;75.10;;;;;;5093572;28;20380;-71
2022/07/18 05:11:00;;;;;;;29.67;10.73;;;29.70;74.80;;;;;;5093112;28;20503;-71
2022/07/18 05:14:03;;;;;;;34.50;9.45;;;29.90;74.90;;;;;;5092068;28;20039;-71
2022/07/18 05:17:08;;;;;;;27.20;8.80;;;30.00;73.00;;;;;;5093273;28;20039;-71
2022/07/18 05:20:15;;;;;;;22.63;8.13;;;30.10;71.70;;;;;;5092867;28;20066;-71
2022/07/18 05:23:19;;;;;;;23.48;8.02;;;30.30;71.70;;;;;;5092623;28;20036;-71
2022/07/18 05:26:23;;;;;;;18.60;7.90;;;30.50;70.50;;;;;;5093167;28;20043;-69
2022/07/18 05:29:27;;;;;;;18.20;8.65;;;30.50;70.10;;;;;;5092585;28;20610;-68
2022/07/18 05:32:31;;;;;;;27.92;8.40;;;30.70;69.90;;;;;;5092384;28;20039;-68
2022/07/18 05:35:35;;;;;;;36.97;8.55;;;30.80;70.10;;;;;;5092931;28;20047;-68
2022/07/18 05:38:39;;;;;;;18.50;8.32;;;31.00;68.80;;;;;;5092586;28;20031;-68
2022/07/18 05:41:43;;;;;;;25.15;8.10;;;31.10;67.60;;;;;;5092272;28;20047;-68
2022/07/18 05:44:47;;;;;;;37.53;8.73;;;31.20;67.90;;;;;;5092849;28;20506;-68
2022/07/18 05:47:53;;;;;;;32.60;8.40;;;31.20;67.80;;;;;;5092170;28;20058;-67
2022/07/18 05:50:57;;;;;;;26.80;8.13;;;31.30;68.00;;;;;;5092161;28;20054;-68
2022/07/18 05:54:01;;;;;;;25.35;9.10;;;31.40;67.90;;;;;;5092582;28;20541;-68
2022/07/18 05:57:05;;;;;;;30.30;9.55;;;31.50;66.70;;;;;;5092515;28;20055;-68
2022/07/18 06:00:10;;;;;;;33.40;9.82;;;31.40;65.70;;;;;;5092307;28;20055;-68
2022/07/18 06:03:14;;;;;;;36.50;9.68;;;31.50;66.70;;;;;;5092067;28;20387;-68
2022/07/18 06:06:18;;;;;;;28.63;10.13;;;31.60;66.90;;;;;;5092071;28;20043;-65
2022/07/18 06:09:22;;;;;;;32.35;9.90;;;31.50;65.70;;;;;;5092264;28;20396;-65
2022/07/18 06:12:30;;;;;;;53.42;11.25;;;31.30;65.90;;;;;;5091988;28;20063;-66
2022/07/18 06:15:34;;;;;;;26.67;9.95;;;31.50;66.40;;;;;;5091191;28;20036;-66
2022/07/18 06:18:39;;;;;;;31.98;9.52;;;31.70;64.80;;;;;;5091509;28;20047;-65
2022/07/18 06:21:42;;;;;;;28.45;10.43;;;31.80;65.80;;;;;;5090793;28;20051;-66
2022/07/18 06:24:46;;;;;;;26.15;9.88;;;31.90;64.50;;;;;;5091621;28;20047;-67
2022/07/18 06:27:50;;;;;;;29.80;9.07;;;32.10;64.70;;;;;;5091637;28;20043;-67
2022/07/18 06:30:55;;;;;;;22.52;8.65;;;32.30;62.30;;;;;;5091735;28;20403;-65
2022/07/18 06:33:59;;;;;;;29.90;8.05;;;32.20;61.60;;;;;;5091620;28;20391;-65
2022/07/18 06:37:03;;;;;;;24.88;8.52;;;32.20;60.90;;;;;;5090057;28;20400;-66
2022/07/18 06:40:07;;;;;;;24.80;8.18;;;32.20;61.00;;;;;;5091166;28;20055;-66
2022/07/18 06:43:13;;;;;;;17.85;7.88;;;32.40;60.10;;;;;;5091430;28;20050;-65
2022/07/18 06:46:17;;;;;;;17.15;8.27;;;32.60;60.30;;;;;;5091343;28;20047;-66
2022/07/18 06:49:21;;;;;;;18.83;7.95;;;33.00;59.10;;;;;;5090038;28;20236;-66
2022/07/18 06:52:25;;;;;;;20.10;7.50;;;33.10;59.50;;;;;;5089142;28;20051;-66
2022/07/18 06:55:29;;;;;;;19.05;8.00;;;33.30;58.10;;;;;;5091205;28;20070;-66
2022/07/18 06:58:33;;;;;;;17.55;7.50;;;33.50;58.20;;;;;;5091185;28;20043;-67
2022/07/18 07:01:37;;;;;;;16.08;7.97;;;33.60;57.70;;;;;;5091141;28;20055;-66
2022/07/18 07:04:41;;;;;;;20.05;7.45;;;33.80;57.70;;;;;;5091068;28;20047;-67
2022/07/18 07:07:45;;;;;;;15.43;7.72;;;34.10;57.50;;;;;;5091047;28;20054;-67
2022/07/18 07:10:49;;;;;;;11.68;7.50;;;34.30;56.10;;;;;;5090776;28;20047;-67
2022/07/18 07:13:53;;;;;;;19.52;8.93;;;34.30;55.90;;;;;;5091067;28;20047;-67
2022/07/18 07:16:57;;;;;;;18.27;8.57;;;34.30;56.00;;;;;;5090914;28;20054;-67
2022/07/18 07:20:02;;;;;;;12.38;7.65;;;34.40;55.90;;;;;;5090704;28;20317;-67
2022/07/18 07:23:07;;;;;;;16.05;7.43;;;34.50;56.20;;;;;;5090742;28;20035;-67
2022/07/18 07:26:11;;;;;;;17.35;8.00;;;34.60;55.60;;;;;;5090756;28;20055;-67
2022/07/18 07:29:15;;;;;;;18.20;7.60;;;34.60;55.90;;;;;;5090892;28;20388;-67
2022/07/18 07:32:19;;;;;;;16.00;7.63;;;34.80;54.80;;;;;;5090705;28;20138;-68
2022/07/18 07:35:23;;;;;;;15.18;7.85;;;34.80;54.80;;;;;;5090805;28;20055;-68
2022/07/18 07:38:29;;;;;;;15.50;7.93;;;34.80;54.90;;;;;;5095200;28;20039;-68
2022/07/18 07:41:33;;;;;;;15.13;7.80;;;35.00;54.80;;;;;;5094962;28;20051;-68
2022/07/18 07:44:37;;;;;;;19.20;7.57;;;35.10;53.90;;;;;;5093541;28;20047;-69
2022/07/18 07:47:41;;;;;;;20.40;8.20;;;35.10;54.10;;;;;;5094551;28;20386;-66
2022/07/18 07:50:45;;;;;;;16.52;6.35;;;35.30;53.80;;;;;;5093060;28;20059;-65
2022/07/18 07:53:49;;;;;;;15.13;6.65;;;35.30;53.60;;;;;;5093737;28;20047;-67
2022/07/18 07:56:53;;;;;;;15.35;6.20;;;35.20;54.50;;;;;;5094595;28;20043;-67
2022/07/18 07:59:57;;;;;;;69.03;16.33;;;35.30;53.70;;;;;;5094054;28;20510;-66
2022/07/18 08:03:05;;;;;;;10.88;6.03;;;35.50;53.90;;;;;;5094712;28;20043;-66
2022/07/18 08:06:09;;;;;;;14.23;7.13;;;35.80;53.10;;;;;;5094618;28;20066;-67
2022/07/18 08:09:13;;;;;;;11.95;6.28;;;36.00;53.00;;;;;;5094668;28;20375;-66
2022/07/18 08:12:17;;;;;;;12.43;7.45;;;36.00;52.70;;;;;;5094172;28;20051;-65
2022/07/18 08:15:21;;;;;;;14.90;6.47;;;35.80;53.90;;;;;;5094440;28;20047;-67
2022/07/18 08:18:25;;;;;;;13.00;6.75;;;35.60;52.80;;;;;;5093843;28;20055;-66
2022/07/18 08:21:29;;;;;;;9.68;5.22;;;35.50;53.60;;;;;;5093597;28;20055;-67
2022/07/18 08:24:33;;;;;;;14.48;5.18;;;35.70;52.60;;;;;;5093611;28;20043;-67
2022/07/18 08:27:37;;;;;;;15.13;5.82;;;35.80;53.10;;;;;;5093951;28;20047;-67
2022/07/18 08:30:41;;;;;;;15.38;5.93;;;35.80;52.80;;;;;;5093500;28;20494;-67
2022/07/18 08:33:45;;;;;;;11.48;5.90;;;35.70;53.10;;;;;;5094215;28;20047;-66
2022/07/18 08:36:50;;;;;;;19.48;6.53;;;35.60;53.20;;;;;;5093977;28;20043;-65
2022/07/18 08:39:54;;;;;;;16.77;7.03;;;35.60;52.90;;;;;;5093856;28;20051;-66
2022/07/18 08:42:58;;;;;;;15.27;5.70;;;35.80;53.20;;;;;;5093553;28;20042;-68
2022/07/18 08:46:05;;;;;;;9.25;5.97;;;36.00;53.30;;;;;;5093507;28;20051;-66
2022/07/18 08:49:11;;;;;;;17.23;7.00;;;36.20;52.70;;;;;;5093099;28;20039;-65
2022/07/18 08:52:16;;;;;;;24.38;8.40;;;36.40;54.00;;;;;;5093042;28;20051;-67
2022/07/18 08:55:21;;;;;;;14.35;6.88;;;37.70;51.90;;;;;;5093482;28;20058;-66
2022/07/18 08:58:25;;;;;;;15.90;7.80;;;38.60;50.30;;;;;;5093057;28;20056;-66
2022/07/18 09:01:31;;;;;;;17.23;7.40;;;39.20;49.90;;;;;;5093049;28;20047;-66
2022/07/18 09:04:43;;;;;;;17.67;8.15;;;39.40;48.90;;;;;;5092747;28;20039;-66
2022/07/18 09:07:48;;;;;;;18.75;8.57;;;39.70;49.00;;;;;;5092824;28;20055;-65
2022/07/18 09:10:55;;;;;;;21.40;8.13;;;39.90;48.90;;;;;;5093222;28;20039;-68
2022/07/18 09:13:58;;;;;;;15.85;8.10;;;40.00;48.70;;;;;;5093326;28;20526;-67
2022/07/18 09:17:09;;;;;;;18.98;7.82;;;40.60;48.10;;;;;;5092947;28;20051;-68
2022/07/18 09:20:15;;;;;;;28.08;8.98;;;41.00;48.60;;;;;;5092853;28;20080;-66
2022/07/18 09:23:19;;;;;;;22.55;8.60;;;40.70;48.00;;;;;;5093013;28;20047;-66
2022/07/18 09:26:45;;;;;;;22.48;9.02;;;40.60;48.20;;;;;;5092370;28;20046;-66
2022/07/18 09:30:17;;;;;;;23.55;9.40;;;40.80;48.10;;;;;;5091873;28;20403;-66
2022/07/18 09:33:22;;;;;;;15.18;8.30;;;40.40;47.40;;;;;;5092507;28;20043;-65
2022/07/18 09:36:27;;;;;;;20.13;8.75;;;39.60;48.40;;;;;;5092800;28;20396;-65
2022/07/18 09:39:31;;;;;;;19.27;8.60;;;40.10;48.40;;;;;;5092781;28;20055;-67
2022/07/18 09:42:35;;;;;;;22.08;8.90;;;40.50;48.10;;;;;;5092816;28;20058;-66
2022/07/18 09:45:43;;;;;;;16.60;8.93;;;40.40;47.40;;;;;;5092663;28;20047;-66
2022/07/18 09:48:48;;;;;;;18.23;7.93;;;40.30;48.30;;;;;;5092745;28;20047;-65
2022/07/18 09:52:06;;;;;;;20.63;8.63;;;40.50;47.70;;;;;;5091588;28;20530;-65
2022/07/18 09:55:11;;;;;;;22.42;7.70;;;40.80;47.70;;;;;;5092119;28;20031;-66
2022/07/18 09:58:23;;;;;;;9.95;5.65;;;41.10;47.00;;;;;;5091146;28;20039;-66
2022/07/18 10:01:27;;;;;;;10.27;6.18;;;41.00;46.70;;;;;;5092020;28;20051;-66
2022/07/18 10:04:32;;;;;;;13.05;6.15;;;40.70;46.60;;;;;;5092223;28;20228;-66
2022/07/18 10:07:37;;;;;;;14.10;5.93;;;40.70;46.60;;;;;;5092152;28;20110;-66
2022/07/18 10:10:43;;;;;;;17.85;6.03;;;40.30;46.70;;;;;;5091689;28;20035;-67
2022/07/18 10:13:47;;;;;;;13.82;5.85;;;39.80;47.00;;;;;;5092116;28;20503;-67
2022/07/18 10:16:52;;;;;;;16.13;5.65;;;38.90;47.90;;;;;;5091638;28;20042;-67
2022/07/18 10:20:01;;;;;;;18.85;6.15;;;38.30;48.90;;;;;;5091309;28;20055;-67
2022/07/18 10:23:15;;;;;;;8.65;5.70;;;38.00;49.10;;;;;;5091848;28;20507;-67
2022/07/18 10:26:25;;;;;;;20.83;5.90;;;37.50;49.20;;;;;;5090663;28;20494;-67
2022/07/18 10:29:29;;;;;;;12.73;5.47;;;37.30;49.50;;;;;;5091599;28;20035;-67
2022/07/18 10:32:34;;;;;;;10.40;5.75;;;37.30;49.10;;;;;;5091546;28;20422;-67
2022/07/18 10:36:01;;;;;;;14.82;5.25;;;37.30;49.50;;;;;;5091624;28;20047;-67
2022/07/18 10:39:20;;;;;;;10.32;5.65;;;37.20;49.70;;;;;;5091372;28;20047;-66
2022/07/18 10:42:26;;;;;;;12.73;5.20;;;37.10;49.50;;;;;;5091580;28;20059;-67
2022/07/18 10:45:49;;;;;;;10.43;5.18;;;37.30;49.70;;;;;;5091255;28;20042;-67
2022/07/18 10:48:55;;;;;;;8.10;5.07;;;37.30;49.70;;;;;;5091182;28;20043;-66
2022/07/18 10:51:59;;;;;;;9.00;5.18;;;37.30;49.40;;;;;;5091286;28;20059;-66
2022/07/18 10:55:06;;;;;;;9.15;5.18;;;37.20;49.20;;;;;;5091316;28;20043;-67
2022/07/18 10:58:10;;;;;;;9.27;4.63;;;37.20;49.60;;;;;;5091093;28;20043;-67
2022/07/18 11:01:17;;;;;;;9.50;4.80;;;37.10;50.00;;;;;;5090970;28;20051;-67
2022/07/18 11:04:35;;;;;;;13.52;5.57;;;37.20;50.30;;;;;;5090965;28;20495;-67
2022/07/18 11:07:59;;;;;;;12.90;4.72;;;37.40;50.00;;;;;;5091401;28;20051;-67
2022/07/18 11:11:05;;;;;;;10.02;4.82;;;37.50;49.40;;;;;;5090204;28;20392;-67
2022/07/18 11:14:08;;;;;;;8.93;4.72;;;37.40;48.90;;;;;;5091147;28;20050;-67
2022/07/18 11:17:12;;;;;;;6.35;4.40;;;37.20;49.70;;;;;;5091152;28;20043;-67
2022/07/18 11:20:39;;;;;;;9.27;4.65;;;37.00;49.40;;;;;;5090695;28;20490;-67
2022/07/18 11:23:46;;;;;;;14.25;4.70;;;36.90;49.70;;;;;;5090815;28;20047;-67
2022/07/18 11:26:50;;;;;;;8.98;4.68;;;36.80;49.40;;;;;;5090859;28;20039;-67
2022/07/18 11:29:54;;;;;;;7.22;4.32;;;36.70;50.00;;;;;;5090892;28;20420;-67
2022/07/18 11:32:58;;;;;;;8.32;4.68;;;36.80;50.40;;;;;;5090738;28;20043;-67
2022/07/18 11:36:08;;;;;;;7.60;4.40;;;36.70;50.00;;;;;;5091105;28;20047;-67
2022/07/18 11:39:14;;;;;;;8.38;4.55;;;36.70;50.00;;;;;;5091022;28;20043;-67
2022/07/18 11:42:33;;;;;;;11.07;4.38;;;36.80;49.90;;;;;;5090868;28;20051;-67
2022/07/18 11:45:37;;;;;;;4.65;4.18;;;36.90;49.50;;;;;;5090905;28;20047;-67
2022/07/18 11:48:46;;;;;;;6.60;4.20;;;36.90;49.90;;;;;;5090655;28;20368;-67
2022/07/18 11:51:50;;;;;;;8.68;4.20;;;36.90;49.90;;;;;;5090775;28;20055;-67
2022/07/18 11:54:54;;;;;;;9.60;4.18;;;37.00;49.80;;;;;;5090442;28;20043;-67
2022/07/18 11:58:09;;;;;;;7.15;4.50;;;37.00;50.10;;;;;;5091227;28;20043;-67
2022/07/18 12:01:13;;;;;;;10.27;5.30;;;37.10;51.50;;;;;;5090478;28;20055;-67
2022/07/18 12:04:24;;;;;;;16.48;6.40;;;37.20;54.00;;;;;;5090833;28;20143;-67
2022/07/18 12:07:28;;;;;;;14.13;7.72;;;37.20;53.90;;;;;;5090612;28;20395;-67
2022/07/18 12:10:32;;;;;;;17.05;8.60;;;37.30;54.00;;;;;;5090857;28;20035;-68
2022/07/18 12:13:52;;;;;;;9.60;7.38;;;37.30;54.20;;;;;;5090602;28;20055;-67
2022/07/18 12:16:57;;;;;;;19.33;8.20;;;37.30;54.50;;;;;;5089434;28;20046;-67
2022/07/18 12:20:20;;;;;;;20.50;8.50;;;37.30;54.20;;;;;;5090091;28;20395;-67
2022/07/18 12:23:29;;;;;;;11.82;6.90;;;38.20;53.40;;;;;;5092934;28;20059;-67
2022/07/18 12:26:33;;;;;;;12.70;6.47;;;39.60;51.90;;;;;;5093996;28;20047;-66
2022/07/18 12:29:55;;;;;;;14.40;6.50;;;40.80;50.80;;;;;;5094181;28;20039;-66
2022/07/18 12:33:08;;;;;;;13.57;6.28;;;41.20;50.00;;;;;;5093977;28;20063;-66
2022/07/18 12:36:12;;;;;;;13.93;5.90;;;41.50;50.20;;;;;;5094263;28;20384;-66
2022/07/18 12:39:26;;;;;;;12.98;6.10;;;41.80;50.10;;;;;;5093700;28;20055;-66
2022/07/18 12:42:32;;;;;;;17.52;6.07;;;41.80;49.40;;;;;;5094010;28;20067;-66
2022/07/18 12:45:38;;;;;;;17.15;5.95;;;41.50;49.70;;;;;;5093473;28;20498;-66
2022/07/18 12:48:42;;;;;;;12.93;5.45;;;41.00;49.70;;;;;;5093458;28;20043;-66
2022/07/18 12:51:46;;;;;;;9.07;5.57;;;41.20;49.40;;;;;;5093212;28;20059;-68
2022/07/18 12:54:50;;;;;;;10.00;5.18;;;41.50;49.20;;;;;;5093781;28;20047;-67
2022/07/18 12:57:54;;;;;;;18.05;6.82;;;41.80;48.90;;;;;;5093043;28;20047;-68
2022/07/18 13:00:59;;;;;;;9.10;5.10;;;41.80;49.10;;;;;;5093278;28;20096;-68
2022/07/18 13:04:04;;;;;;;9.40;5.38;;;41.70;48.90;;;;;;5093675;28;20039;-69
2022/07/18 13:07:09;;;;;;;17.92;5.80;;;41.60;49.40;;;;;;5093280;28;20047;-67
2022/07/18 13:10:13;;;;;;;8.05;5.43;;;41.70;48.80;;;;;;5093068;28;20514;-67
2022/07/18 13:13:17;;;;;;;10.10;5.13;;;41.30;48.10;;;;;;5092910;28;20042;-67
2022/07/18 13:16:20;;;;;;;17.55;5.25;;;41.20;48.00;;;;;;5092268;28;20055;-67
2022/07/18 13:19:24;;;;;;;8.45;5.20;;;41.30;48.70;;;;;;5092877;28;20047;-66
2022/07/18 13:22:31;;;;;;;12.18;5.35;;;41.40;49.50;;;;;;5093234;28;20511;-67
2022/07/18 13:25:35;;;;;;;11.18;5.50;;;41.40;50.40;;;;;;5092530;28;20039;-67
2022/07/18 13:28:39;;;;;;;29.55;6.20;;;41.60;50.00;;;;;;5092943;28;20047;-66
2022/07/18 13:31:43;;;;;;;17.40;5.90;;;41.40;49.80;;;;;;5093184;28;20043;-67
2022/07/18 13:34:47;;;;;;;14.82;5.65;;;41.40;50.20;;;;;;5092174;28;20047;-66
2022/07/18 13:37:51;;;;;;;13.57;5.28;;;41.70;49.70;;;;;;5092474;28;20448;-65
2022/07/18 13:40:56;;;;;;;10.77;5.38;;;41.90;49.70;;;;;;5092420;28;20051;-67
2022/07/18 13:43:59;;;;;;;9.48;5.22;;;41.70;49.40;;;;;;5092473;28;20039;-66
2022/07/18 13:47:03;;;;;;;24.55;6.53;;;41.70;49.80;;;;;;5092410;28;20043;-67
2022/07/18 13:50:08;;;;;;;18.23;5.15;;;41.50;49.60;;;;;;5092105;28;20051;-66
2022/07/18 13:53:12;;;;;;;26.60;5.90;;;41.20;50.20;;;;;;5092451;28;20503;-66
2022/07/18 13:56:16;;;;;;;16.63;4.97;;;41.00;50.40;;;;;;5092651;28;20039;-66
2022/07/18 13:59:20;;;;;;;13.75;6.13;;;41.30;49.90;;;;;;5092696;28;20059;-67
2022/07/18 14:02:24;;;;;;;12.70;6.03;;;41.20;49.90;;;;;;5092103;28;20051;-66
2022/07/18 14:05:28;;;;;;;12.88;5.22;;;41.00;49.80;;;;;;5092329;28;20495;-66
2022/07/18 14:08:33;;;;;;;16.27;6.10;;;41.10;49.70;;;;;;5091562;28;20043;-67
2022/07/18 14:11:37;;;;;;;13.85;5.00;;;41.20;49.20;;;;;;5092028;28;20384;-66
2022/07/18 14:14:41;;;;;;;13.23;5.38;;;40.70;49.30;;;;;;5091676;28;20051;-66
2022/07/18 14:17:45;;;;;;;10.23;5.13;;;40.30;49.90;;;;;;5091728;28;20047;-66
2022/07/18 14:20:49;;;;;;;11.60;5.43;;;39.80;50.20;;;;;;5091827;28;20403;-66
2022/07/18 14:23:54;;;;;;;11.85;5.53;;;39.50;50.30;;;;;;5091877;28;20038;-66
2022/07/18 14:26:57;;;;;;;13.65;5.65;;;39.10;50.50;;;;;;5091741;28;20278;-66
2022/07/18 14:30:02;;;;;;;18.02;5.45;;;38.70;50.70;;;;;;5091830;28;20047;-67
2022/07/18 14:33:06;;;;;;;15.88;5.40;;;38.60;51.70;;;;;;5091805;28;20043;-67
2022/07/18 14:36:11;;;;;;;8.88;5.25;;;38.30;51.60;;;;;;5091560;28;20399;-66
2022/07/18 14:39:15;;;;;;;13.57;5.57;;;38.10;52.20;;;;;;5091509;28;20051;-66
2022/07/18 14:42:18;;;;;;;14.63;5.38;;;38.00;52.60;;;;;;5089930;28;20062;-66
2022/07/18 14:45:22;;;;;;;15.13;5.60;;;37.90;52.60;;;;;;5091317;28;20039;-67
2022/07/18 14:48:26;;;;;;;13.15;5.38;;;37.80;52.50;;;;;;5091358;28;20075;-66
2022/07/18 14:51:31;;;;;;;9.02;5.28;;;37.70;52.50;;;;;;5091316;28;20487;-66
2022/07/18 14:54:35;;;;;;;10.00;5.10;;;37.60;52.80;;;;;;5091139;28;20412;-66
2022/07/18 14:57:39;;;;;;;11.68;5.38;;;37.50;52.70;;;;;;5091586;28;20377;-67
2022/07/18 15:00:43;;;;;;;10.15;5.65;;;37.40;53.30;;;;;;5089392;28;20263;-67
2022/07/18 15:03:47;;;;;;;17.90;7.15;;;37.20;54.10;;;;;;5088660;28;20387;-68
2022/07/18 15:06:51;;;;;;;19.45;5.80;;;37.00;55.10;;;;;;5088435;28;20039;-67
2022/07/18 15:09:55;;;;;;;11.68;5.75;;;37.00;55.30;;;;;;5088769;28;20039;-67
2022/07/18 15:12:59;;;;;;;10.55;5.72;;;36.90;54.70;;;;;;5089077;28;20055;-67
2022/07/18 15:16:04;;;;;;;13.10;5.80;;;36.70;55.70;;;;;;5090077;28;20039;-70
2022/07/18 15:19:08;;;;;;;15.43;5.60;;;36.60;56.40;;;;;;5091244;28;20387;-68
2022/07/18 15:22:12;;;;;;;13.13;6.93;;;36.60;56.60;;;;;;5090739;28;20055;-68
2022/07/18 15:25:16;;;;;;;16.98;6.38;;;36.50;56.90;;;;;;5090636;28;20526;-67
2022/07/18 15:28:22;;;;;;;11.80;5.28;;;37.40;56.30;;;;;;5090644;28;20047;-68
2022/07/18 15:31:27;;;;;;;11.88;6.30;;;38.80;54.70;;;;;;5089673;28;20043;-68
2022/07/18 15:34:30;;;;;;;17.98;6.05;;;39.70;53.40;;;;;;5090635;28;20047;-71
2022/07/18 15:37:34;;;;;;;22.83;5.72;;;39.90;52.80;;;;;;5089096;28;20043;-70
2022/07/18 15:40:38;;;;;;;10.98;5.97;;;39.90;52.90;;;;;;5089588;28;20047;-68
2022/07/18 15:43:43;;;;;;;15.70;5.35;;;39.90;52.90;;;;;;5089950;28;20063;-68
2022/07/18 15:46:47;;;;;;;21.17;6.38;;;39.80;52.90;;;;;;5089750;28;20415;-68
2022/07/18 15:49:51;;;;;;;14.65;5.80;;;39.70;52.90;;;;;;5089384;28;20051;-68
2022/07/18 15:52:55;;;;;;;17.00;6.32;;;39.70;53.00;;;;;;5089466;28;20043;-67